sensor_id;sensor_type;location;lat;lon;timestamp;P1;durP1;ratioP1;P2;durP2;ratioP2
74245;SDS011;62601;51.044;13.788;2022-11-24T00:02:06;30.75;;;17.75;;
74245;SDS011;62601;51.044;13.788;2022-11-24T00:04:27;32.10;;;17.52;;
74245;SDS011;62601;51.044;13.788;2022-11-24T00:06:47;34.40;;;18.20;;
74245;SDS011;62601;51.044;13.788;2022-11-24T00:09:08;36.50;;;18.15;;
74245;SDS011;62601;51.044;13.788;2022-11-24T00:11:31;31.35;;;17.58;;
74245;SDS011;62601;51.044;13.788;2022-11-24T00:13:53;30.98;;;16.73;;
74245;SDS011;62601;51.044;13.788;2022-11-24T00:16:19;33.55;;;18.33;;
74245;SDS011;62601;51.044;13.788;2022-11-24T00:18:41;32.20;;;18.85;;
74245;SDS011;62601;51.044;13.788;2022-11-24T00:21:06;34.97;;;18.90;;
74245;SDS011;62601;51.044;13.788;2022-11-24T00:23:28;33.67;;;16.77;;
74245;SDS011;62601;51.044;13.788;2022-11-24T00:25:49;34.72;;;19.40;;
74245;SDS011;62601;51.044;13.788;2022-11-24T00:28:10;34.47;;;19.50;;
74245;SDS011;62601;51.044;13.788;2022-11-24T00:30:32;43.88;;;23.75;;
74245;SDS011;62601;51.044;13.788;2022-11-24T00:32:53;40.15;;;23.05;;
74245;SDS011;62601;51.044;13.788;2022-11-24T00:35:13;40.58;;;21.55;;
74245;SDS011;62601;51.044;13.788;2022-11-24T00:37:33;37.22;;;19.20;;
74245;SDS011;62601;51.044;13.788;2022-11-24T00:39:55;37.63;;;20.15;;
74245;SDS011;62601;51.044;13.788;2022-11-24T00:42:15;35.78;;;17.30;;
74245;SDS011;62601;51.044;13.788;2022-11-24T00:44:35;25.92;;;16.95;;
74245;SDS011;62601;51.044;13.788;2022-11-24T00:46:55;24.90;;;15.00;;
74245;SDS011;62601;51.044;13.788;2022-11-24T00:49:15;29.65;;;15.82;;
74245;SDS011;62601;51.044;13.788;2022-11-24T00:51:36;31.77;;;16.85;;
74245;SDS011;62601;51.044;13.788;2022-11-24T00:54:01;32.47;;;17.83;;
74245;SDS011;62601;51.044;13.788;2022-11-24T00:56:23;31.23;;;18.95;;
74245;SDS011;62601;51.044;13.788;2022-11-24T00:58:44;29.00;;;17.98;;
74245;SDS011;62601;51.044;13.788;2022-11-24T01:01:15;31.25;;;16.77;;
74245;SDS011;62601;51.044;13.788;2022-11-24T01:03:36;32.80;;;16.67;;
74245;SDS011;62601;51.044;13.788;2022-11-24T01:06:01;32.85;;;17.50;;
74245;SDS011;62601;51.044;13.788;2022-11-24T01:08:23;31.13;;;17.15;;
74245;SDS011;62601;51.044;13.788;2022-11-24T01:10:44;31.95;;;17.38;;
74245;SDS011;62601;51.044;13.788;2022-11-24T01:13:06;34.67;;;18.77;;
74245;SDS011;62601;51.044;13.788;2022-11-24T01:15:27;33.50;;;18.25;;
74245;SDS011;62601;51.044;13.788;2022-11-24T01:17:49;33.35;;;17.58;;
74245;SDS011;62601;51.044;13.788;2022-11-24T01:20:10;37.40;;;19.85;;
74245;SDS011;62601;51.044;13.788;2022-11-24T01:22:31;30.48;;;18.77;;
74245;SDS011;62601;51.044;13.788;2022-11-24T01:24:53;30.40;;;16.80;;
74245;SDS011;62601;51.044;13.788;2022-11-24T01:27:17;33.17;;;17.25;;
74245;SDS011;62601;51.044;13.788;2022-11-24T01:29:38;29.25;;;17.17;;
74245;SDS011;62601;51.044;13.788;2022-11-24T01:32:00;40.80;;;18.17;;
74245;SDS011;62601;51.044;13.788;2022-11-24T01:34:21;26.10;;;16.40;;
74245;SDS011;62601;51.044;13.788;2022-11-24T01:36:45;31.27;;;16.40;;
74245;SDS011;62601;51.044;13.788;2022-11-24T01:39:06;29.63;;;16.65;;
74245;SDS011;62601;51.044;13.788;2022-11-24T01:41:26;29.17;;;16.10;;
74245;SDS011;62601;51.044;13.788;2022-11-24T01:43:48;32.28;;;18.40;;
74245;SDS011;62601;51.044;13.788;2022-11-24T01:48:56;32.55;;;16.25;;
74245;SDS011;62601;51.044;13.788;2022-11-24T01:51:18;28.25;;;16.42;;
74245;SDS011;62601;51.044;13.788;2022-11-24T01:53:42;27.88;;;16.85;;
74245;SDS011;62601;51.044;13.788;2022-11-24T01:56:14;30.83;;;16.58;;
74245;SDS011;62601;51.044;13.788;2022-11-24T01:58:36;31.15;;;17.02;;
74245;SDS011;62601;51.044;13.788;2022-11-24T02:00:58;32.58;;;16.95;;
74245;SDS011;62601;51.044;13.788;2022-11-24T02:03:20;28.92;;;16.15;;
74245;SDS011;62601;51.044;13.788;2022-11-24T02:08:21;33.08;;;15.50;;
74245;SDS011;62601;51.044;13.788;2022-11-24T02:10:47;29.73;;;16.23;;
74245;SDS011;62601;51.044;13.788;2022-11-24T02:13:09;29.27;;;15.68;;
74245;SDS011;62601;51.044;13.788;2022-11-24T02:15:30;27.67;;;15.15;;
74245;SDS011;62601;51.044;13.788;2022-11-24T02:17:52;27.58;;;15.63;;
74245;SDS011;62601;51.044;13.788;2022-11-24T02:20:13;27.90;;;14.45;;
74245;SDS011;62601;51.044;13.788;2022-11-24T02:22:36;32.45;;;15.35;;
74245;SDS011;62601;51.044;13.788;2022-11-24T02:27:36;30.90;;;14.90;;
74245;SDS011;62601;51.044;13.788;2022-11-24T02:29:58;34.65;;;16.65;;
74245;SDS011;62601;51.044;13.788;2022-11-24T02:32:22;28.38;;;15.30;;
74245;SDS011;62601;51.044;13.788;2022-11-24T02:34:44;27.83;;;16.13;;
74245;SDS011;62601;51.044;13.788;2022-11-24T02:37:05;30.65;;;16.20;;
74245;SDS011;62601;51.044;13.788;2022-11-24T02:39:26;24.27;;;13.55;;
74245;SDS011;62601;51.044;13.788;2022-11-24T02:41:49;33.00;;;15.85;;
74245;SDS011;62601;51.044;13.788;2022-11-24T02:44:12;28.67;;;16.73;;
74245;SDS011;62601;51.044;13.788;2022-11-24T02:46:34;29.17;;;14.95;;
74245;SDS011;62601;51.044;13.788;2022-11-24T02:48:56;26.92;;;15.57;;
74245;SDS011;62601;51.044;13.788;2022-11-24T02:51:17;26.75;;;15.25;;
74245;SDS011;62601;51.044;13.788;2022-11-24T02:53:39;33.67;;;15.65;;
74245;SDS011;62601;51.044;13.788;2022-11-24T02:56:00;29.95;;;15.18;;
74245;SDS011;62601;51.044;13.788;2022-11-24T02:58:21;25.30;;;14.55;;
74245;SDS011;62601;51.044;13.788;2022-11-24T03:00:43;27.45;;;15.52;;
74245;SDS011;62601;51.044;13.788;2022-11-24T03:03:04;23.45;;;14.13;;
74245;SDS011;62601;51.044;13.788;2022-11-24T03:05:26;27.83;;;16.13;;
74245;SDS011;62601;51.044;13.788;2022-11-24T03:07:47;29.08;;;14.02;;
74245;SDS011;62601;51.044;13.788;2022-11-24T03:10:08;29.42;;;14.32;;
74245;SDS011;62601;51.044;13.788;2022-11-24T03:12:28;30.05;;;15.85;;
74245;SDS011;62601;51.044;13.788;2022-11-24T03:14:49;24.92;;;14.48;;
74245;SDS011;62601;51.044;13.788;2022-11-24T03:17:14;33.58;;;15.05;;
74245;SDS011;62601;51.044;13.788;2022-11-24T03:19:35;26.80;;;15.35;;
74245;SDS011;62601;51.044;13.788;2022-11-24T03:21:56;25.98;;;13.90;;
74245;SDS011;62601;51.044;13.788;2022-11-24T03:24:18;30.70;;;15.30;;
74245;SDS011;62601;51.044;13.788;2022-11-24T03:26:38;27.02;;;14.18;;
74245;SDS011;62601;51.044;13.788;2022-11-24T03:28:59;30.55;;;16.40;;
74245;SDS011;62601;51.044;13.788;2022-11-24T03:31:21;27.45;;;13.68;;
74245;SDS011;62601;51.044;13.788;2022-11-24T03:33:42;28.23;;;15.73;;
74245;SDS011;62601;51.044;13.788;2022-11-24T03:36:04;30.30;;;15.20;;
74245;SDS011;62601;51.044;13.788;2022-11-24T03:38:26;29.48;;;14.07;;
74245;SDS011;62601;51.044;13.788;2022-11-24T03:40:48;29.58;;;13.90;;
74245;SDS011;62601;51.044;13.788;2022-11-24T03:43:09;27.67;;;15.32;;
74245;SDS011;62601;51.044;13.788;2022-11-24T03:45:31;27.88;;;15.20;;
74245;SDS011;62601;51.044;13.788;2022-11-24T03:47:52;26.83;;;13.02;;
74245;SDS011;62601;51.044;13.788;2022-11-24T03:50:12;25.95;;;14.60;;
74245;SDS011;62601;51.044;13.788;2022-11-24T03:52:32;26.75;;;13.65;;
74245;SDS011;62601;51.044;13.788;2022-11-24T03:54:54;26.92;;;15.32;;
74245;SDS011;62601;51.044;13.788;2022-11-24T03:57:16;25.95;;;14.80;;
74245;SDS011;62601;51.044;13.788;2022-11-24T03:59:36;27.67;;;14.40;;
74245;SDS011;62601;51.044;13.788;2022-11-24T04:01:57;28.33;;;14.07;;
74245;SDS011;62601;51.044;13.788;2022-11-24T04:04:19;34.55;;;13.70;;
74245;SDS011;62601;51.044;13.788;2022-11-24T04:06:40;28.08;;;15.32;;
74245;SDS011;62601;51.044;13.788;2022-11-24T04:09:00;31.40;;;14.82;;
74245;SDS011;62601;51.044;13.788;2022-11-24T04:11:21;26.63;;;14.73;;
74245;SDS011;62601;51.044;13.788;2022-11-24T04:13:42;31.42;;;15.95;;
74245;SDS011;62601;51.044;13.788;2022-11-24T04:16:07;26.13;;;14.55;;
74245;SDS011;62601;51.044;13.788;2022-11-24T04:18:28;29.40;;;15.27;;
74245;SDS011;62601;51.044;13.788;2022-11-24T04:20:50;25.65;;;13.85;;
74245;SDS011;62601;51.044;13.788;2022-11-24T04:23:11;35.83;;;14.88;;
74245;SDS011;62601;51.044;13.788;2022-11-24T04:25:33;30.00;;;14.48;;
74245;SDS011;62601;51.044;13.788;2022-11-24T04:27:54;31.17;;;14.82;;
74245;SDS011;62601;51.044;13.788;2022-11-24T04:30:16;27.52;;;14.80;;
74245;SDS011;62601;51.044;13.788;2022-11-24T04:32:37;26.80;;;14.00;;
74245;SDS011;62601;51.044;13.788;2022-11-24T04:34:57;27.75;;;14.55;;
74245;SDS011;62601;51.044;13.788;2022-11-24T04:37:19;30.20;;;14.98;;
74245;SDS011;62601;51.044;13.788;2022-11-24T04:39:40;28.25;;;14.60;;
74245;SDS011;62601;51.044;13.788;2022-11-24T04:42:02;25.63;;;13.55;;
74245;SDS011;62601;51.044;13.788;2022-11-24T04:44:23;26.70;;;14.30;;
74245;SDS011;62601;51.044;13.788;2022-11-24T04:46:45;25.13;;;13.85;;
74245;SDS011;62601;51.044;13.788;2022-11-24T04:49:06;30.83;;;15.68;;
74245;SDS011;62601;51.044;13.788;2022-11-24T04:51:28;26.85;;;14.45;;
74245;SDS011;62601;51.044;13.788;2022-11-24T04:53:48;27.80;;;13.50;;
74245;SDS011;62601;51.044;13.788;2022-11-24T04:56:10;27.17;;;13.85;;
74245;SDS011;62601;51.044;13.788;2022-11-24T04:58:31;29.15;;;13.73;;
74245;SDS011;62601;51.044;13.788;2022-11-24T05:00:52;27.65;;;14.15;;
74245;SDS011;62601;51.044;13.788;2022-11-24T05:03:14;26.67;;;14.60;;
74245;SDS011;62601;51.044;13.788;2022-11-24T05:05:35;28.52;;;14.10;;
74245;SDS011;62601;51.044;13.788;2022-11-24T05:07:59;28.05;;;15.77;;
74245;SDS011;62601;51.044;13.788;2022-11-24T05:10:21;26.77;;;14.40;;
74245;SDS011;62601;51.044;13.788;2022-11-24T05:12:42;26.42;;;14.10;;
74245;SDS011;62601;51.044;13.788;2022-11-24T05:15:03;25.70;;;13.45;;
74245;SDS011;62601;51.044;13.788;2022-11-24T05:17:28;28.45;;;14.80;;
74245;SDS011;62601;51.044;13.788;2022-11-24T05:19:49;22.30;;;13.10;;
74245;SDS011;62601;51.044;13.788;2022-11-24T05:22:10;22.60;;;12.27;;
74245;SDS011;62601;51.044;13.788;2022-11-24T05:24:32;24.52;;;12.15;;
74245;SDS011;62601;51.044;13.788;2022-11-24T05:26:53;23.00;;;13.57;;
74245;SDS011;62601;51.044;13.788;2022-11-24T05:29:15;23.55;;;13.15;;
74245;SDS011;62601;51.044;13.788;2022-11-24T05:31:36;25.20;;;13.68;;
74245;SDS011;62601;51.044;13.788;2022-11-24T05:33:57;28.58;;;13.50;;
74245;SDS011;62601;51.044;13.788;2022-11-24T05:36:19;21.30;;;13.50;;
74245;SDS011;62601;51.044;13.788;2022-11-24T05:38:40;21.77;;;12.25;;
74245;SDS011;62601;51.044;13.788;2022-11-24T05:41:03;25.35;;;13.15;;
74245;SDS011;62601;51.044;13.788;2022-11-24T05:43:32;22.60;;;12.70;;
74245;SDS011;62601;51.044;13.788;2022-11-24T05:45:57;26.75;;;13.48;;
74245;SDS011;62601;51.044;13.788;2022-11-24T05:48:19;25.88;;;13.27;;
74245;SDS011;62601;51.044;13.788;2022-11-24T05:50:40;25.95;;;13.40;;
74245;SDS011;62601;51.044;13.788;2022-11-24T05:53:05;22.73;;;12.43;;
74245;SDS011;62601;51.044;13.788;2022-11-24T05:55:36;21.33;;;13.23;;
74245;SDS011;62601;51.044;13.788;2022-11-24T05:58:01;20.77;;;11.95;;
74245;SDS011;62601;51.044;13.788;2022-11-24T06:00:27;21.45;;;12.82;;
74245;SDS011;62601;51.044;13.788;2022-11-24T06:02:48;24.50;;;12.45;;
74245;SDS011;62601;51.044;13.788;2022-11-24T06:05:10;25.70;;;14.45;;
74245;SDS011;62601;51.044;13.788;2022-11-24T06:07:31;22.67;;;14.05;;
74245;SDS011;62601;51.044;13.788;2022-11-24T06:09:52;25.52;;;14.20;;
74245;SDS011;62601;51.044;13.788;2022-11-24T06:12:14;26.00;;;14.02;;
74245;SDS011;62601;51.044;13.788;2022-11-24T06:14:35;24.67;;;12.57;;
74245;SDS011;62601;51.044;13.788;2022-11-24T06:16:56;22.10;;;12.63;;
74245;SDS011;62601;51.044;13.788;2022-11-24T06:19:17;25.45;;;14.43;;
74245;SDS011;62601;51.044;13.788;2022-11-24T06:21:38;22.75;;;12.23;;
74245;SDS011;62601;51.044;13.788;2022-11-24T06:23:59;23.13;;;12.25;;
74245;SDS011;62601;51.044;13.788;2022-11-24T06:26:20;22.95;;;11.90;;
74245;SDS011;62601;51.044;13.788;2022-11-24T06:28:41;22.77;;;13.32;;
74245;SDS011;62601;51.044;13.788;2022-11-24T06:31:03;25.45;;;14.50;;
74245;SDS011;62601;51.044;13.788;2022-11-24T06:33:23;23.25;;;12.55;;
74245;SDS011;62601;51.044;13.788;2022-11-24T06:35:45;19.02;;;11.93;;
74245;SDS011;62601;51.044;13.788;2022-11-24T06:38:06;23.85;;;12.77;;
74245;SDS011;62601;51.044;13.788;2022-11-24T06:40:28;19.58;;;12.30;;
74245;SDS011;62601;51.044;13.788;2022-11-24T06:42:48;21.10;;;12.65;;
74245;SDS011;62601;51.044;13.788;2022-11-24T06:45:09;24.83;;;13.35;;
74245;SDS011;62601;51.044;13.788;2022-11-24T06:47:31;26.40;;;12.98;;
74245;SDS011;62601;51.044;13.788;2022-11-24T06:49:54;25.25;;;14.05;;
74245;SDS011;62601;51.044;13.788;2022-11-24T06:52:15;20.50;;;13.15;;
74245;SDS011;62601;51.044;13.788;2022-11-24T06:54:41;27.58;;;15.40;;
74245;SDS011;62601;51.044;13.788;2022-11-24T06:57:02;22.77;;;12.45;;
74245;SDS011;62601;51.044;13.788;2022-11-24T06:59:23;26.35;;;12.80;;
74245;SDS011;62601;51.044;13.788;2022-11-24T07:01:45;19.77;;;12.63;;
74245;SDS011;62601;51.044;13.788;2022-11-24T07:04:06;20.98;;;12.43;;
74245;SDS011;62601;51.044;13.788;2022-11-24T07:06:27;20.95;;;13.25;;
74245;SDS011;62601;51.044;13.788;2022-11-24T07:08:49;22.50;;;12.38;;
74245;SDS011;62601;51.044;13.788;2022-11-24T07:11:10;23.92;;;12.60;;
74245;SDS011;62601;51.044;13.788;2022-11-24T07:13:32;23.70;;;13.65;;
74245;SDS011;62601;51.044;13.788;2022-11-24T07:15:52;21.83;;;13.55;;
74245;SDS011;62601;51.044;13.788;2022-11-24T07:18:13;27.55;;;13.60;;
74245;SDS011;62601;51.044;13.788;2022-11-24T07:20:35;25.25;;;13.65;;
74245;SDS011;62601;51.044;13.788;2022-11-24T07:22:57;25.90;;;14.23;;
74245;SDS011;62601;51.044;13.788;2022-11-24T07:25:18;27.65;;;13.85;;
74245;SDS011;62601;51.044;13.788;2022-11-24T07:27:39;26.05;;;13.98;;
74245;SDS011;62601;51.044;13.788;2022-11-24T07:30:00;23.40;;;13.90;;
74245;SDS011;62601;51.044;13.788;2022-11-24T07:32:20;25.73;;;14.00;;
74245;SDS011;62601;51.044;13.788;2022-11-24T07:34:40;20.65;;;12.55;;
74245;SDS011;62601;51.044;13.788;2022-11-24T07:37:05;26.60;;;14.45;;
74245;SDS011;62601;51.044;13.788;2022-11-24T07:39:26;26.70;;;14.95;;
74245;SDS011;62601;51.044;13.788;2022-11-24T07:41:47;24.77;;;14.00;;
74245;SDS011;62601;51.044;13.788;2022-11-24T07:44:09;26.25;;;14.52;;
74245;SDS011;62601;51.044;13.788;2022-11-24T07:46:33;25.00;;;14.48;;
74245;SDS011;62601;51.044;13.788;2022-11-24T07:48:53;23.75;;;12.85;;
74245;SDS011;62601;51.044;13.788;2022-11-24T07:51:13;28.42;;;14.13;;
74245;SDS011;62601;51.044;13.788;2022-11-24T07:53:35;25.70;;;15.57;;
74245;SDS011;62601;51.044;13.788;2022-11-24T07:55:57;25.67;;;14.82;;
74245;SDS011;62601;51.044;13.788;2022-11-24T07:58:17;31.25;;;15.02;;
74245;SDS011;62601;51.044;13.788;2022-11-24T08:00:41;25.40;;;14.95;;
74245;SDS011;62601;51.044;13.788;2022-11-24T08:03:03;29.55;;;15.20;;
74245;SDS011;62601;51.044;13.788;2022-11-24T08:05:25;25.85;;;13.98;;
74245;SDS011;62601;51.044;13.788;2022-11-24T08:07:46;24.38;;;14.20;;
74245;SDS011;62601;51.044;13.788;2022-11-24T08:10:07;24.50;;;13.80;;
74245;SDS011;62601;51.044;13.788;2022-11-24T08:12:28;20.75;;;12.93;;
74245;SDS011;62601;51.044;13.788;2022-11-24T08:14:48;28.92;;;14.85;;
74245;SDS011;62601;51.044;13.788;2022-11-24T08:17:10;30.90;;;17.10;;
74245;SDS011;62601;51.044;13.788;2022-11-24T08:19:31;25.48;;;15.18;;
74245;SDS011;62601;51.044;13.788;2022-11-24T08:21:52;24.77;;;14.82;;
74245;SDS011;62601;51.044;13.788;2022-11-24T08:24:14;24.15;;;13.80;;
74245;SDS011;62601;51.044;13.788;2022-11-24T08:26:35;23.42;;;15.35;;
74245;SDS011;62601;51.044;13.788;2022-11-24T08:28:57;28.30;;;15.43;;
74245;SDS011;62601;51.044;13.788;2022-11-24T08:31:18;24.90;;;13.77;;
74245;SDS011;62601;51.044;13.788;2022-11-24T08:33:40;25.77;;;14.15;;
74245;SDS011;62601;51.044;13.788;2022-11-24T08:36:15;28.52;;;16.17;;
74245;SDS011;62601;51.044;13.788;2022-11-24T08:38:36;23.83;;;12.90;;
74245;SDS011;62601;51.044;13.788;2022-11-24T08:41:04;26.13;;;15.02;;
74245;SDS011;62601;51.044;13.788;2022-11-24T08:43:26;25.92;;;14.80;;
74245;SDS011;62601;51.044;13.788;2022-11-24T08:45:47;27.60;;;15.35;;
74245;SDS011;62601;51.044;13.788;2022-11-24T08:48:08;26.58;;;14.93;;
74245;SDS011;62601;51.044;13.788;2022-11-24T08:50:30;28.15;;;14.35;;
74245;SDS011;62601;51.044;13.788;2022-11-24T08:52:51;25.92;;;15.35;;
74245;SDS011;62601;51.044;13.788;2022-11-24T08:55:13;24.83;;;14.13;;
74245;SDS011;62601;51.044;13.788;2022-11-24T08:57:34;24.60;;;14.07;;
74245;SDS011;62601;51.044;13.788;2022-11-24T08:59:56;24.90;;;15.20;;
74245;SDS011;62601;51.044;13.788;2022-11-24T09:02:16;25.35;;;13.65;;
74245;SDS011;62601;51.044;13.788;2022-11-24T09:04:36;23.30;;;14.48;;
74245;SDS011;62601;51.044;13.788;2022-11-24T09:06:57;29.23;;;15.35;;
74245;SDS011;62601;51.044;13.788;2022-11-24T09:09:18;23.33;;;14.10;;
74245;SDS011;62601;51.044;13.788;2022-11-24T09:11:38;27.35;;;16.60;;
74245;SDS011;62601;51.044;13.788;2022-11-24T09:14:00;24.50;;;15.65;;
74245;SDS011;62601;51.044;13.788;2022-11-24T09:16:23;27.05;;;15.52;;
74245;SDS011;62601;51.044;13.788;2022-11-24T09:18:44;23.65;;;14.18;;
74245;SDS011;62601;51.044;13.788;2022-11-24T09:21:06;23.38;;;13.63;;
74245;SDS011;62601;51.044;13.788;2022-11-24T09:23:30;27.15;;;15.15;;
74245;SDS011;62601;51.044;13.788;2022-11-24T09:25:52;29.23;;;15.07;;
74245;SDS011;62601;51.044;13.788;2022-11-24T09:28:13;25.25;;;14.43;;
74245;SDS011;62601;51.044;13.788;2022-11-24T09:30:34;26.25;;;16.67;;
74245;SDS011;62601;51.044;13.788;2022-11-24T09:32:56;21.90;;;14.15;;
74245;SDS011;62601;51.044;13.788;2022-11-24T09:35:17;30.83;;;16.95;;
74245;SDS011;62601;51.044;13.788;2022-11-24T09:37:39;27.40;;;15.82;;
74245;SDS011;62601;51.044;13.788;2022-11-24T09:40:00;24.00;;;14.10;;
74245;SDS011;62601;51.044;13.788;2022-11-24T09:50:20;23.83;;;14.80;;
74245;SDS011;62601;51.044;13.788;2022-11-24T09:52:57;24.83;;;14.70;;
74245;SDS011;62601;51.044;13.788;2022-11-24T09:58:16;27.23;;;15.60;;
74245;SDS011;62601;51.044;13.788;2022-11-24T10:00:37;24.35;;;14.93;;
74245;SDS011;62601;51.044;13.788;2022-11-24T10:02:59;23.45;;;13.95;;
74245;SDS011;62601;51.044;13.788;2022-11-24T10:05:19;21.85;;;14.15;;
74245;SDS011;62601;51.044;13.788;2022-11-24T10:07:42;24.00;;;14.77;;
74245;SDS011;62601;51.044;13.788;2022-11-24T10:10:19;24.48;;;13.98;;
74245;SDS011;62601;51.044;13.788;2022-11-24T10:12:55;27.33;;;13.77;;
74245;SDS011;62601;51.044;13.788;2022-11-24T10:15:31;28.17;;;14.85;;
74245;SDS011;62601;51.044;13.788;2022-11-24T10:18:03;26.10;;;14.57;;
74245;SDS011;62601;51.044;13.788;2022-11-24T10:26:14;22.80;;;13.93;;
74245;SDS011;62601;51.044;13.788;2022-11-24T10:28:14;23.35;;;15.23;;
74245;SDS011;62601;51.044;13.788;2022-11-24T10:30:35;25.63;;;14.65;;
74245;SDS011;62601;51.044;13.788;2022-11-24T10:33:30;25.45;;;15.05;;
74245;SDS011;62601;51.044;13.788;2022-11-24T10:38:31;21.95;;;13.52;;
74245;SDS011;62601;51.044;13.788;2022-11-24T10:40:59;21.95;;;13.80;;
74245;SDS011;62601;51.044;13.788;2022-11-24T10:43:24;24.67;;;14.57;;
74245;SDS011;62601;51.044;13.788;2022-11-24T10:45:58;25.25;;;15.70;;
74245;SDS011;62601;51.044;13.788;2022-11-24T10:48:23;23.52;;;14.20;;
74245;SDS011;62601;51.044;13.788;2022-11-24T10:50:45;23.50;;;14.32;;
74245;SDS011;62601;51.044;13.788;2022-11-24T10:53:15;24.98;;;14.38;;
74245;SDS011;62601;51.044;13.788;2022-11-24T10:58:16;25.75;;;14.43;;
74245;SDS011;62601;51.044;13.788;2022-11-24T11:00:36;29.70;;;15.73;;
74245;SDS011;62601;51.044;13.788;2022-11-24T11:03:11;24.45;;;14.40;;
74245;SDS011;62601;51.044;13.788;2022-11-24T11:05:40;28.20;;;15.30;;
74245;SDS011;62601;51.044;13.788;2022-11-24T11:10:42;26.35;;;16.27;;
74245;SDS011;62601;51.044;13.788;2022-11-24T11:13:20;26.92;;;14.30;;
74245;SDS011;62601;51.044;13.788;2022-11-24T11:15:41;23.50;;;14.77;;
74245;SDS011;62601;51.044;13.788;2022-11-24T11:18:03;25.70;;;15.77;;
74245;SDS011;62601;51.044;13.788;2022-11-24T11:20:28;26.13;;;15.85;;
74245;SDS011;62601;51.044;13.788;2022-11-24T11:22:49;30.63;;;18.33;;
74245;SDS011;62601;51.044;13.788;2022-11-24T11:27:34;24.92;;;14.85;;
74245;SDS011;62601;51.044;13.788;2022-11-24T11:30:08;24.88;;;14.48;;
74245;SDS011;62601;51.044;13.788;2022-11-24T11:32:36;23.10;;;14.30;;
74245;SDS011;62601;51.044;13.788;2022-11-24T11:35:10;21.00;;;14.40;;
74245;SDS011;62601;51.044;13.788;2022-11-24T11:37:30;22.45;;;12.48;;
74245;SDS011;62601;51.044;13.788;2022-11-24T11:39:53;22.65;;;14.48;;
74245;SDS011;62601;51.044;13.788;2022-11-24T11:50:10;25.63;;;16.13;;
74245;SDS011;62601;51.044;13.788;2022-11-24T11:55:21;22.20;;;14.18;;
74245;SDS011;62601;51.044;13.788;2022-11-24T11:58:09;25.83;;;16.17;;
74245;SDS011;62601;51.044;13.788;2022-11-24T12:00:36;22.55;;;12.90;;
74245;SDS011;62601;51.044;13.788;2022-11-24T12:13:53;24.48;;;15.77;;
74245;SDS011;62601;51.044;13.788;2022-11-24T12:21:58;23.83;;;14.25;;
74245;SDS011;62601;51.044;13.788;2022-11-24T12:27:12;24.27;;;15.30;;
74245;SDS011;62601;51.044;13.788;2022-11-24T12:29:57;29.42;;;15.77;;
74245;SDS011;62601;51.044;13.788;2022-11-24T12:32:26;24.55;;;14.52;;
74245;SDS011;62601;51.044;13.788;2022-11-24T12:34:53;23.45;;;14.43;;
74245;SDS011;62601;51.044;13.788;2022-11-24T12:40:13;25.50;;;14.48;;
74245;SDS011;62601;51.044;13.788;2022-11-24T12:45:11;26.58;;;14.45;;
74245;SDS011;62601;51.044;13.788;2022-11-24T12:50:16;24.95;;;14.50;;
74245;SDS011;62601;51.044;13.788;2022-11-24T12:55:17;25.65;;;15.52;;
74245;SDS011;62601;51.044;13.788;2022-11-24T12:57:39;22.73;;;15.60;;
74245;SDS011;62601;51.044;13.788;2022-11-24T13:08:02;28.05;;;15.73;;
74245;SDS011;62601;51.044;13.788;2022-11-24T13:10:41;25.85;;;16.08;;
74245;SDS011;62601;51.044;13.788;2022-11-24T13:13:13;23.60;;;14.35;;
74245;SDS011;62601;51.044;13.788;2022-11-24T13:20:52;27.92;;;17.33;;
74245;SDS011;62601;51.044;13.788;2022-11-24T13:23:23;24.90;;;15.95;;
74245;SDS011;62601;51.044;13.788;2022-11-24T13:26:13;23.08;;;15.52;;
74245;SDS011;62601;51.044;13.788;2022-11-24T13:31:10;24.95;;;15.80;;
74245;SDS011;62601;51.044;13.788;2022-11-24T13:33:31;25.85;;;15.35;;
74245;SDS011;62601;51.044;13.788;2022-11-24T13:36:27;26.95;;;15.23;;
74245;SDS011;62601;51.044;13.788;2022-11-24T13:41:06;28.08;;;17.50;;
74245;SDS011;62601;51.044;13.788;2022-11-24T13:43:28;26.38;;;16.90;;
74245;SDS011;62601;51.044;13.788;2022-11-24T13:45:50;24.40;;;15.88;;
74245;SDS011;62601;51.044;13.788;2022-11-24T13:53:14;27.75;;;17.92;;
74245;SDS011;62601;51.044;13.788;2022-11-24T13:55:38;23.88;;;15.52;;
74245;SDS011;62601;51.044;13.788;2022-11-24T14:00:33;28.83;;;17.85;;
74245;SDS011;62601;51.044;13.788;2022-11-24T14:02:59;28.85;;;17.15;;
74245;SDS011;62601;51.044;13.788;2022-11-24T14:05:21;36.85;;;15.80;;
74245;SDS011;62601;51.044;13.788;2022-11-24T14:07:53;24.60;;;15.07;;
74245;SDS011;62601;51.044;13.788;2022-11-24T14:10:19;25.77;;;16.20;;
74245;SDS011;62601;51.044;13.788;2022-11-24T14:12:42;27.35;;;15.40;;
74245;SDS011;62601;51.044;13.788;2022-11-24T14:15:18;25.25;;;15.40;;
74245;SDS011;62601;51.044;13.788;2022-11-24T14:17:40;30.42;;;16.90;;
74245;SDS011;62601;51.044;13.788;2022-11-24T14:20:08;28.95;;;16.13;;
74245;SDS011;62601;51.044;13.788;2022-11-24T14:22:35;28.25;;;15.30;;
74245;SDS011;62601;51.044;13.788;2022-11-24T14:24:59;27.58;;;14.25;;
74245;SDS011;62601;51.044;13.788;2022-11-24T14:27:34;26.67;;;16.00;;
74245;SDS011;62601;51.044;13.788;2022-11-24T14:30:00;27.52;;;15.80;;
74245;SDS011;62601;51.044;13.788;2022-11-24T14:32:22;27.27;;;16.10;;
74245;SDS011;62601;51.044;13.788;2022-11-24T14:34:43;22.90;;;15.02;;
74245;SDS011;62601;51.044;13.788;2022-11-24T14:37:03;27.80;;;15.35;;
74245;SDS011;62601;51.044;13.788;2022-11-24T14:39:25;26.17;;;16.40;;
74245;SDS011;62601;51.044;13.788;2022-11-24T14:41:49;25.80;;;17.73;;
74245;SDS011;62601;51.044;13.788;2022-11-24T14:44:23;25.35;;;15.75;;
74245;SDS011;62601;51.044;13.788;2022-11-24T14:46:45;27.02;;;15.65;;
74245;SDS011;62601;51.044;13.788;2022-11-24T14:49:06;31.40;;;18.55;;
74245;SDS011;62601;51.044;13.788;2022-11-24T14:51:29;32.53;;;18.40;;
74245;SDS011;62601;51.044;13.788;2022-11-24T14:53:56;26.85;;;16.73;;
74245;SDS011;62601;51.044;13.788;2022-11-24T14:56:22;27.58;;;16.58;;
74245;SDS011;62601;51.044;13.788;2022-11-24T14:58:43;28.88;;;18.00;;
74245;SDS011;62601;51.044;13.788;2022-11-24T15:01:47;24.15;;;15.98;;
74245;SDS011;62601;51.044;13.788;2022-11-24T15:06:29;29.73;;;17.35;;
74245;SDS011;62601;51.044;13.788;2022-11-24T15:08:50;29.52;;;17.00;;
74245;SDS011;62601;51.044;13.788;2022-11-24T15:11:12;28.05;;;16.77;;
74245;SDS011;62601;51.044;13.788;2022-11-24T15:13:33;39.30;;;23.50;;
74245;SDS011;62601;51.044;13.788;2022-11-24T15:15:58;30.88;;;17.48;;
74245;SDS011;62601;51.044;13.788;2022-11-24T15:18:40;27.40;;;17.35;;
74245;SDS011;62601;51.044;13.788;2022-11-24T15:21:01;34.28;;;18.70;;
74245;SDS011;62601;51.044;13.788;2022-11-24T15:23:29;28.92;;;18.13;;
74245;SDS011;62601;51.044;13.788;2022-11-24T15:26:36;30.88;;;18.77;;
74245;SDS011;62601;51.044;13.788;2022-11-24T15:28:33;27.50;;;17.67;;
74245;SDS011;62601;51.044;13.788;2022-11-24T15:30:58;29.65;;;17.73;;